sensor_id;sensor_type;location;lat;lon;timestamp;P1;durP1;ratioP1;P2;durP2;ratioP2
8225;SDS011;4154;48.810;9.012;2023-01-31T00:01:21;5.47;;;3.70;;
8225;SDS011;4154;48.810;9.012;2023-01-31T00:03:54;5.70;;;3.77;;
8225;SDS011;4154;48.810;9.012;2023-01-31T00:06:23;5.93;;;3.60;;
8225;SDS011;4154;48.810;9.012;2023-01-31T00:08:55;5.43;;;3.60;;
8225;SDS011;4154;48.810;9.012;2023-01-31T00:11:24;5.40;;;3.47;;
8225;SDS011;4154;48.810;9.012;2023-01-31T00:13:51;4.73;;;3.50;;
8225;SDS011;4154;48.810;9.012;2023-01-31T00:16:17;5.93;;;3.47;;
8225;SDS011;4154;48.810;9.012;2023-01-31T00:18:45;4.63;;;3.33;;
8225;SDS011;4154;48.810;9.012;2023-01-31T00:21:12;5.97;;;3.70;;
8225;SDS011;4154;48.810;9.012;2023-01-31T00:23:44;5.67;;;3.43;;
8225;SDS011;4154;48.810;9.012;2023-01-31T00:29:01;6.13;;;4.03;;
8225;SDS011;4154;48.810;9.012;2023-01-31T00:31:30;7.17;;;3.43;;
8225;SDS011;4154;48.810;9.012;2023-01-31T00:33:58;4.87;;;3.23;;
8225;SDS011;4154;48.810;9.012;2023-01-31T00:36:28;4.83;;;3.40;;
8225;SDS011;4154;48.810;9.012;2023-01-31T00:38:57;6.23;;;3.40;;
8225;SDS011;4154;48.810;9.012;2023-01-31T00:41:26;5.60;;;3.67;;
8225;SDS011;4154;48.810;9.012;2023-01-31T00:43:54;4.03;;;3.20;;
8225;SDS011;4154;48.810;9.012;2023-01-31T00:46:21;5.17;;;2.90;;
8225;SDS011;4154;48.810;9.012;2023-01-31T00:48:47;5.53;;;3.20;;
8225;SDS011;4154;48.810;9.012;2023-01-31T00:51:14;4.70;;;3.10;;
8225;SDS011;4154;48.810;9.012;2023-01-31T00:53:41;5.33;;;3.03;;
8225;SDS011;4154;48.810;9.012;2023-01-31T00:56:11;5.30;;;3.00;;
8225;SDS011;4154;48.810;9.012;2023-01-31T00:58:40;6.10;;;3.33;;
8225;SDS011;4154;48.810;9.012;2023-01-31T01:03:38;4.57;;;3.10;;
8225;SDS011;4154;48.810;9.012;2023-01-31T01:06:06;4.60;;;2.80;;
8225;SDS011;4154;48.810;9.012;2023-01-31T01:08:33;5.03;;;3.00;;
8225;SDS011;4154;48.810;9.012;2023-01-31T01:11:04;6.87;;;3.20;;
8225;SDS011;4154;48.810;9.012;2023-01-31T01:13:36;4.33;;;3.10;;
8225;SDS011;4154;48.810;9.012;2023-01-31T01:16:03;5.30;;;3.03;;
8225;SDS011;4154;48.810;9.012;2023-01-31T01:18:37;4.73;;;3.27;;
8225;SDS011;4154;48.810;9.012;2023-01-31T01:21:07;5.23;;;3.23;;
8225;SDS011;4154;48.810;9.012;2023-01-31T01:23:37;7.13;;;3.47;;
8225;SDS011;4154;48.810;9.012;2023-01-31T01:26:03;4.77;;;3.00;;
8225;SDS011;4154;48.810;9.012;2023-01-31T01:28:34;4.80;;;2.80;;
8225;SDS011;4154;48.810;9.012;2023-01-31T01:31:03;5.07;;;3.47;;
8225;SDS011;4154;48.810;9.012;2023-01-31T01:33:31;7.83;;;3.43;;
8225;SDS011;4154;48.810;9.012;2023-01-31T01:36:01;4.17;;;2.93;;
8225;SDS011;4154;48.810;9.012;2023-01-31T01:38:29;6.57;;;3.10;;
8225;SDS011;4154;48.810;9.012;2023-01-31T01:40:58;5.63;;;3.33;;
8225;SDS011;4154;48.810;9.012;2023-01-31T01:43:37;7.00;;;3.40;;
8225;SDS011;4154;48.810;9.012;2023-01-31T01:46:10;4.77;;;3.07;;
8225;SDS011;4154;48.810;9.012;2023-01-31T01:48:45;5.97;;;3.50;;
8225;SDS011;4154;48.810;9.012;2023-01-31T01:51:16;6.40;;;3.73;;
8225;SDS011;4154;48.810;9.012;2023-01-31T01:53:44;7.67;;;3.70;;
8225;SDS011;4154;48.810;9.012;2023-01-31T01:56:20;6.17;;;3.63;;
8225;SDS011;4154;48.810;9.012;2023-01-31T01:59:00;7.77;;;3.83;;
8225;SDS011;4154;48.810;9.012;2023-01-31T02:01:39;7.23;;;4.00;;
8225;SDS011;4154;48.810;9.012;2023-01-31T02:04:05;9.40;;;4.07;;
8225;SDS011;4154;48.810;9.012;2023-01-31T02:06:37;7.27;;;3.83;;
8225;SDS011;4154;48.810;9.012;2023-01-31T02:09:04;5.57;;;3.90;;
8225;SDS011;4154;48.810;9.012;2023-01-31T02:11:35;5.43;;;3.67;;
8225;SDS011;4154;48.810;9.012;2023-01-31T02:14:03;5.87;;;3.97;;
8225;SDS011;4154;48.810;9.012;2023-01-31T02:16:32;4.23;;;3.57;;
8225;SDS011;4154;48.810;9.012;2023-01-31T02:18:59;6.13;;;3.90;;
8225;SDS011;4154;48.810;9.012;2023-01-31T02:21:50;6.87;;;4.07;;
8225;SDS011;4154;48.810;9.012;2023-01-31T02:24:42;7.50;;;3.87;;
8225;SDS011;4154;48.810;9.012;2023-01-31T02:28:06;6.53;;;4.10;;
8225;SDS011;4154;48.810;9.012;2023-01-31T02:34:01;6.10;;;3.83;;
8225;SDS011;4154;48.810;9.012;2023-01-31T02:37:21;4.97;;;4.00;;
8225;SDS011;4154;48.810;9.012;2023-01-31T02:42:54;6.57;;;3.97;;
8225;SDS011;4154;48.810;9.012;2023-01-31T02:51:22;7.67;;;4.10;;
8225;SDS011;4154;48.810;9.012;2023-01-31T02:54:01;8.20;;;4.03;;
8225;SDS011;4154;48.810;9.012;2023-01-31T02:57:16;7.47;;;4.57;;
8225;SDS011;4154;48.810;9.012;2023-01-31T02:59:42;7.17;;;4.10;;
8225;SDS011;4154;48.810;9.012;2023-01-31T03:02:09;6.13;;;4.03;;
8225;SDS011;4154;48.810;9.012;2023-01-31T03:04:37;6.80;;;4.50;;
8225;SDS011;4154;48.810;9.012;2023-01-31T03:07:15;5.70;;;4.30;;
8225;SDS011;4154;48.810;9.012;2023-01-31T03:09:55;5.13;;;3.60;;
8225;SDS011;4154;48.810;9.012;2023-01-31T03:12:46;7.40;;;4.30;;
8225;SDS011;4154;48.810;9.012;2023-01-31T03:15:33;8.37;;;4.03;;
8225;SDS011;4154;48.810;9.012;2023-01-31T03:18:36;6.97;;;3.80;;
8225;SDS011;4154;48.810;9.012;2023-01-31T03:21:38;6.57;;;3.80;;
8225;SDS011;4154;48.810;9.012;2023-01-31T03:24:49;6.33;;;3.83;;
8225;SDS011;4154;48.810;9.012;2023-01-31T03:27:18;7.53;;;3.80;;
8225;SDS011;4154;48.810;9.012;2023-01-31T03:29:45;5.73;;;3.60;;
8225;SDS011;4154;48.810;9.012;2023-01-31T03:35:02;5.97;;;4.00;;
8225;SDS011;4154;48.810;9.012;2023-01-31T03:40:40;8.47;;;3.90;;
8225;SDS011;4154;48.810;9.012;2023-01-31T03:45:57;6.47;;;3.97;;
8225;SDS011;4154;48.810;9.012;2023-01-31T03:48:36;6.17;;;3.77;;
8225;SDS011;4154;48.810;9.012;2023-01-31T03:51:08;5.13;;;3.37;;
8225;SDS011;4154;48.810;9.012;2023-01-31T03:53:47;8.30;;;4.10;;
8225;SDS011;4154;48.810;9.012;2023-01-31T03:58:57;6.87;;;3.60;;
8225;SDS011;4154;48.810;9.012;2023-01-31T04:01:28;5.30;;;3.80;;
8225;SDS011;4154;48.810;9.012;2023-01-31T04:04:00;7.23;;;3.77;;
8225;SDS011;4154;48.810;9.012;2023-01-31T04:06:34;10.43;;;3.77;;
8225;SDS011;4154;48.810;9.012;2023-01-31T04:09:00;5.97;;;3.33;;
8225;SDS011;4154;48.810;9.012;2023-01-31T04:11:26;6.53;;;4.37;;
8225;SDS011;4154;48.810;9.012;2023-01-31T04:13:52;4.97;;;3.53;;
8225;SDS011;4154;48.810;9.012;2023-01-31T04:16:18;7.17;;;3.60;;
8225;SDS011;4154;48.810;9.012;2023-01-31T04:18:44;8.00;;;3.60;;
8225;SDS011;4154;48.810;9.012;2023-01-31T04:21:10;6.87;;;3.50;;
8225;SDS011;4154;48.810;9.012;2023-01-31T04:23:39;6.37;;;3.40;;
8225;SDS011;4154;48.810;9.012;2023-01-31T04:26:04;6.50;;;3.73;;
8225;SDS011;4154;48.810;9.012;2023-01-31T04:28:30;6.20;;;3.50;;
8225;SDS011;4154;48.810;9.012;2023-01-31T04:30:56;8.17;;;3.70;;
8225;SDS011;4154;48.810;9.012;2023-01-31T04:33:22;6.87;;;3.80;;
8225;SDS011;4154;48.810;9.012;2023-01-31T04:35:51;4.50;;;3.70;;
8225;SDS011;4154;48.810;9.012;2023-01-31T04:38:17;7.40;;;3.50;;
8225;SDS011;4154;48.810;9.012;2023-01-31T04:40:43;8.00;;;3.37;;
8225;SDS011;4154;48.810;9.012;2023-01-31T04:43:08;6.63;;;3.73;;
8225;SDS011;4154;48.810;9.012;2023-01-31T04:45:34;7.73;;;3.70;;
8225;SDS011;4154;48.810;9.012;2023-01-31T04:48:00;6.50;;;3.80;;
8225;SDS011;4154;48.810;9.012;2023-01-31T04:50:25;7.23;;;4.00;;
8225;SDS011;4154;48.810;9.012;2023-01-31T04:52:51;6.47;;;3.80;;
8225;SDS011;4154;48.810;9.012;2023-01-31T04:55:17;5.33;;;3.50;;
8225;SDS011;4154;48.810;9.012;2023-01-31T04:57:43;6.40;;;3.53;;
8225;SDS011;4154;48.810;9.012;2023-01-31T05:00:09;8.73;;;4.13;;
8225;SDS011;4154;48.810;9.012;2023-01-31T05:02:36;5.73;;;3.70;;
8225;SDS011;4154;48.810;9.012;2023-01-31T05:05:03;6.93;;;3.80;;
8225;SDS011;4154;48.810;9.012;2023-01-31T05:07:30;5.83;;;3.50;;
8225;SDS011;4154;48.810;9.012;2023-01-31T05:09:56;8.17;;;4.20;;
8225;SDS011;4154;48.810;9.012;2023-01-31T05:12:21;6.20;;;4.07;;
8225;SDS011;4154;48.810;9.012;2023-01-31T05:14:47;6.30;;;3.77;;
8225;SDS011;4154;48.810;9.012;2023-01-31T05:17:13;6.67;;;4.17;;
8225;SDS011;4154;48.810;9.012;2023-01-31T05:19:38;6.87;;;3.77;;
8225;SDS011;4154;48.810;9.012;2023-01-31T05:22:06;5.43;;;4.03;;
8225;SDS011;4154;48.810;9.012;2023-01-31T05:24:32;6.67;;;3.93;;
8225;SDS011;4154;48.810;9.012;2023-01-31T05:26:59;5.67;;;3.90;;
8225;SDS011;4154;48.810;9.012;2023-01-31T05:29:29;6.17;;;3.90;;
8225;SDS011;4154;48.810;9.012;2023-01-31T05:31:57;4.80;;;3.60;;
8225;SDS011;4154;48.810;9.012;2023-01-31T05:34:25;8.07;;;4.13;;
8225;SDS011;4154;48.810;9.012;2023-01-31T05:36:54;6.90;;;4.20;;
8225;SDS011;4154;48.810;9.012;2023-01-31T05:39:20;6.13;;;4.10;;
8225;SDS011;4154;48.810;9.012;2023-01-31T05:41:46;6.33;;;3.83;;
8225;SDS011;4154;48.810;9.012;2023-01-31T05:44:12;7.47;;;4.00;;
8225;SDS011;4154;48.810;9.012;2023-01-31T05:46:38;5.80;;;4.23;;
8225;SDS011;4154;48.810;9.012;2023-01-31T05:49:04;6.53;;;4.13;;
8225;SDS011;4154;48.810;9.012;2023-01-31T05:51:31;5.23;;;3.83;;
8225;SDS011;4154;48.810;9.012;2023-01-31T05:53:57;7.93;;;4.43;;
8225;SDS011;4154;48.810;9.012;2023-01-31T05:56:23;6.67;;;4.20;;
8225;SDS011;4154;48.810;9.012;2023-01-31T05:58:50;8.63;;;4.90;;
8225;SDS011;4154;48.810;9.012;2023-01-31T06:01:16;6.57;;;4.27;;
8225;SDS011;4154;48.810;9.012;2023-01-31T06:03:43;6.40;;;4.17;;
8225;SDS011;4154;48.810;9.012;2023-01-31T06:06:09;5.83;;;4.10;;
8225;SDS011;4154;48.810;9.012;2023-01-31T06:08:35;6.73;;;4.13;;
8225;SDS011;4154;48.810;9.012;2023-01-31T06:11:01;7.07;;;3.93;;
8225;SDS011;4154;48.810;9.012;2023-01-31T06:13:28;5.17;;;3.60;;
8225;SDS011;4154;48.810;9.012;2023-01-31T06:15:57;6.00;;;4.07;;
8225;SDS011;4154;48.810;9.012;2023-01-31T06:18:24;5.43;;;4.07;;
8225;SDS011;4154;48.810;9.012;2023-01-31T06:20:50;8.03;;;4.60;;
8225;SDS011;4154;48.810;9.012;2023-01-31T06:23:17;8.37;;;4.20;;
8225;SDS011;4154;48.810;9.012;2023-01-31T06:25:43;8.40;;;3.93;;
8225;SDS011;4154;48.810;9.012;2023-01-31T06:28:13;8.23;;;3.83;;
8225;SDS011;4154;48.810;9.012;2023-01-31T06:30:39;5.77;;;3.57;;
8225;SDS011;4154;48.810;9.012;2023-01-31T06:33:05;7.03;;;3.77;;
8225;SDS011;4154;48.810;9.012;2023-01-31T06:35:30;9.33;;;4.20;;
8225;SDS011;4154;48.810;9.012;2023-01-31T06:37:57;8.57;;;3.90;;
8225;SDS011;4154;48.810;9.012;2023-01-31T06:40:23;7.17;;;3.70;;
8225;SDS011;4154;48.810;9.012;2023-01-31T06:42:49;9.07;;;3.80;;
8225;SDS011;4154;48.810;9.012;2023-01-31T06:45:15;6.83;;;3.77;;
8225;SDS011;4154;48.810;9.012;2023-01-31T06:47:43;7.83;;;4.10;;
8225;SDS011;4154;48.810;9.012;2023-01-31T06:50:10;4.70;;;3.63;;
8225;SDS011;4154;48.810;9.012;2023-01-31T06:52:37;5.00;;;3.50;;
8225;SDS011;4154;48.810;9.012;2023-01-31T06:55:04;6.73;;;3.67;;
8225;SDS011;4154;48.810;9.012;2023-01-31T06:57:31;5.50;;;3.30;;
8225;SDS011;4154;48.810;9.012;2023-01-31T06:59:57;8.50;;;3.97;;
8225;SDS011;4154;48.810;9.012;2023-01-31T07:02:22;5.80;;;3.60;;
8225;SDS011;4154;48.810;9.012;2023-01-31T07:04:49;6.27;;;3.53;;
8225;SDS011;4154;48.810;9.012;2023-01-31T07:07:15;5.87;;;3.60;;
8225;SDS011;4154;48.810;9.012;2023-01-31T07:09:41;5.00;;;3.53;;
8225;SDS011;4154;48.810;9.012;2023-01-31T07:12:07;7.17;;;3.87;;
8225;SDS011;4154;48.810;9.012;2023-01-31T07:14:33;6.83;;;3.57;;
8225;SDS011;4154;48.810;9.012;2023-01-31T07:16:59;6.47;;;3.37;;
8225;SDS011;4154;48.810;9.012;2023-01-31T07:19:25;7.20;;;4.10;;
8225;SDS011;4154;48.810;9.012;2023-01-31T07:21:51;6.50;;;3.60;;
8225;SDS011;4154;48.810;9.012;2023-01-31T07:24:17;6.50;;;3.70;;
8225;SDS011;4154;48.810;9.012;2023-01-31T07:26:43;7.07;;;3.80;;
8225;SDS011;4154;48.810;9.012;2023-01-31T07:29:09;6.07;;;3.60;;
8225;SDS011;4154;48.810;9.012;2023-01-31T07:31:36;8.47;;;4.10;;
8225;SDS011;4154;48.810;9.012;2023-01-31T07:34:02;9.37;;;3.70;;
8225;SDS011;4154;48.810;9.012;2023-01-31T07:36:28;9.10;;;3.40;;
8225;SDS011;4154;48.810;9.012;2023-01-31T07:38:56;6.13;;;3.60;;
8225;SDS011;4154;48.810;9.012;2023-01-31T07:41:22;6.30;;;3.50;;
8225;SDS011;4154;48.810;9.012;2023-01-31T07:43:49;6.23;;;3.57;;
8225;SDS011;4154;48.810;9.012;2023-01-31T07:46:15;7.93;;;3.67;;
8225;SDS011;4154;48.810;9.012;2023-01-31T07:48:41;6.00;;;3.90;;
8225;SDS011;4154;48.810;9.012;2023-01-31T07:51:08;6.37;;;3.87;;
8225;SDS011;4154;48.810;9.012;2023-01-31T07:53:35;6.30;;;3.40;;
8225;SDS011;4154;48.810;9.012;2023-01-31T07:56:06;6.20;;;3.50;;
8225;SDS011;4154;48.810;9.012;2023-01-31T07:58:38;6.67;;;3.63;;
8225;SDS011;4154;48.810;9.012;2023-01-31T08:01:05;7.70;;;3.97;;
8225;SDS011;4154;48.810;9.012;2023-01-31T08:03:52;6.93;;;4.13;;
8225;SDS011;4154;48.810;9.012;2023-01-31T08:06:18;9.73;;;3.83;;
8225;SDS011;4154;48.810;9.012;2023-01-31T08:08:44;5.33;;;3.40;;
8225;SDS011;4154;48.810;9.012;2023-01-31T08:11:10;6.20;;;3.40;;
8225;SDS011;4154;48.810;9.012;2023-01-31T08:13:36;6.63;;;3.23;;
8225;SDS011;4154;48.810;9.012;2023-01-31T08:16:03;5.97;;;3.47;;
8225;SDS011;4154;48.810;9.012;2023-01-31T08:18:33;5.00;;;3.60;;
8225;SDS011;4154;48.810;9.012;2023-01-31T08:20:59;6.57;;;3.27;;
8225;SDS011;4154;48.810;9.012;2023-01-31T08:23:26;4.87;;;3.40;;
8225;SDS011;4154;48.810;9.012;2023-01-31T08:25:58;5.27;;;3.23;;
8225;SDS011;4154;48.810;9.012;2023-01-31T08:28:28;7.60;;;3.60;;
8225;SDS011;4154;48.810;9.012;2023-01-31T08:30:55;7.77;;;3.53;;
8225;SDS011;4154;48.810;9.012;2023-01-31T08:33:21;6.50;;;3.43;;
8225;SDS011;4154;48.810;9.012;2023-01-31T08:35:47;10.10;;;3.90;;
8225;SDS011;4154;48.810;9.012;2023-01-31T08:38:12;4.43;;;3.03;;
8225;SDS011;4154;48.810;9.012;2023-01-31T08:40:39;8.27;;;3.53;;
8225;SDS011;4154;48.810;9.012;2023-01-31T08:43:04;7.23;;;3.50;;
8225;SDS011;4154;48.810;9.012;2023-01-31T08:45:31;6.00;;;3.20;;
8225;SDS011;4154;48.810;9.012;2023-01-31T08:47:58;5.70;;;3.00;;
8225;SDS011;4154;48.810;9.012;2023-01-31T08:50:25;4.20;;;3.00;;
8225;SDS011;4154;48.810;9.012;2023-01-31T08:52:55;6.00;;;3.40;;
8225;SDS011;4154;48.810;9.012;2023-01-31T08:55:24;5.73;;;2.50;;
8225;SDS011;4154;48.810;9.012;2023-01-31T08:57:52;4.60;;;2.83;;
8225;SDS011;4154;48.810;9.012;2023-01-31T09:00:19;7.07;;;2.93;;
8225;SDS011;4154;48.810;9.012;2023-01-31T09:02:55;8.70;;;2.73;;
8225;SDS011;4154;48.810;9.012;2023-01-31T09:05:23;6.30;;;2.80;;
8225;SDS011;4154;48.810;9.012;2023-01-31T09:07:52;5.93;;;3.00;;
8225;SDS011;4154;48.810;9.012;2023-01-31T09:10:18;4.90;;;2.90;;
8225;SDS011;4154;48.810;9.012;2023-01-31T09:12:46;6.77;;;2.97;;
8225;SDS011;4154;48.810;9.012;2023-01-31T09:15:12;6.30;;;2.63;;
8225;SDS011;4154;48.810;9.012;2023-01-31T09:17:38;5.87;;;2.80;;
8225;SDS011;4154;48.810;9.012;2023-01-31T09:20:06;5.27;;;2.70;;
8225;SDS011;4154;48.810;9.012;2023-01-31T09:22:37;6.10;;;2.80;;
8225;SDS011;4154;48.810;9.012;2023-01-31T09:25:03;4.83;;;2.60;;
8225;SDS011;4154;48.810;9.012;2023-01-31T09:27:31;3.73;;;2.70;;
8225;SDS011;4154;48.810;9.012;2023-01-31T09:29:57;6.63;;;2.90;;
8225;SDS011;4154;48.810;9.012;2023-01-31T09:32:23;7.67;;;2.70;;
8225;SDS011;4154;48.810;9.012;2023-01-31T09:34:56;5.50;;;2.70;;
8225;SDS011;4154;48.810;9.012;2023-01-31T09:37:23;5.03;;;2.53;;
8225;SDS011;4154;48.810;9.012;2023-01-31T09:39:49;4.93;;;2.83;;
8225;SDS011;4154;48.810;9.012;2023-01-31T09:42:20;7.13;;;2.87;;
8225;SDS011;4154;48.810;9.012;2023-01-31T09:45:03;3.77;;;2.57;;
8225;SDS011;4154;48.810;9.012;2023-01-31T09:47:42;4.77;;;2.50;;
8225;SDS011;4154;48.810;9.012;2023-01-31T09:53:04;5.80;;;2.77;;
8225;SDS011;4154;48.810;9.012;2023-01-31T09:55:47;5.63;;;2.73;;
8225;SDS011;4154;48.810;9.012;2023-01-31T10:03:44;6.93;;;2.70;;
8225;SDS011;4154;48.810;9.012;2023-01-31T10:06:35;5.17;;;2.90;;
8225;SDS011;4154;48.810;9.012;2023-01-31T10:12:09;5.60;;;3.03;;
8225;SDS011;4154;48.810;9.012;2023-01-31T10:14:53;5.73;;;2.90;;
8225;SDS011;4154;48.810;9.012;2023-01-31T10:17:36;4.77;;;2.73;;
8225;SDS011;4154;48.810;9.012;2023-01-31T10:20:32;3.83;;;2.53;;
8225;SDS011;4154;48.810;9.012;2023-01-31T10:23:22;6.37;;;2.83;;
8225;SDS011;4154;48.810;9.012;2023-01-31T10:26:25;6.63;;;2.90;;
8225;SDS011;4154;48.810;9.012;2023-01-31T10:29:11;7.53;;;3.10;;
8225;SDS011;4154;48.810;9.012;2023-01-31T10:32:14;5.73;;;3.10;;
8225;SDS011;4154;48.810;9.012;2023-01-31T10:37:46;4.57;;;2.80;;
8225;SDS011;4154;48.810;9.012;2023-01-31T10:40:28;5.00;;;2.87;;
8225;SDS011;4154;48.810;9.012;2023-01-31T10:43:08;5.97;;;2.40;;
8225;SDS011;4154;48.810;9.012;2023-01-31T10:45:46;5.37;;;2.60;;
8225;SDS011;4154;48.810;9.012;2023-01-31T10:48:18;7.30;;;3.10;;
8225;SDS011;4154;48.810;9.012;2023-01-31T10:51:06;5.50;;;2.63;;
8225;SDS011;4154;48.810;9.012;2023-01-31T10:56:47;4.97;;;2.47;;
8225;SDS011;4154;48.810;9.012;2023-01-31T10:59:20;4.40;;;2.50;;
8225;SDS011;4154;48.810;9.012;2023-01-31T11:01:55;4.73;;;2.43;;
8225;SDS011;4154;48.810;9.012;2023-01-31T11:04:23;4.47;;;2.27;;
8225;SDS011;4154;48.810;9.012;2023-01-31T11:06:56;4.70;;;2.47;;
8225;SDS011;4154;48.810;9.012;2023-01-31T11:09:27;5.73;;;2.57;;
8225;SDS011;4154;48.810;9.012;2023-01-31T11:11:59;9.57;;;3.00;;
8225;SDS011;4154;48.810;9.012;2023-01-31T11:14:27;5.20;;;2.33;;
8225;SDS011;4154;48.810;9.012;2023-01-31T11:17:01;4.87;;;2.50;;
8225;SDS011;4154;48.810;9.012;2023-01-31T11:19:43;5.30;;;2.60;;
8225;SDS011;4154;48.810;9.012;2023-01-31T11:22:24;6.17;;;3.20;;
8225;SDS011;4154;48.810;9.012;2023-01-31T11:24:57;5.53;;;2.80;;
8225;SDS011;4154;48.810;9.012;2023-01-31T11:27:30;7.53;;;2.90;;
8225;SDS011;4154;48.810;9.012;2023-01-31T11:30:27;6.53;;;2.50;;
8225;SDS011;4154;48.810;9.012;2023-01-31T11:36:50;3.57;;;2.00;;
8225;SDS011;4154;48.810;9.012;2023-01-31T11:39:20;5.57;;;2.03;;
8225;SDS011;4154;48.810;9.012;2023-01-31T11:41:50;3.33;;;1.83;;
8225;SDS011;4154;48.810;9.012;2023-01-31T11:44:19;3.27;;;1.77;;
8225;SDS011;4154;48.810;9.012;2023-01-31T11:46:57;5.33;;;2.10;;
8225;SDS011;4154;48.810;9.012;2023-01-31T11:49:41;3.93;;;1.90;;
8225;SDS011;4154;48.810;9.012;2023-01-31T11:52:15;4.07;;;2.13;;
8225;SDS011;4154;48.810;9.012;2023-01-31T11:54:47;4.37;;;1.97;;
8225;SDS011;4154;48.810;9.012;2023-01-31T11:57:22;3.13;;;1.60;;
8225;SDS011;4154;48.810;9.012;2023-01-31T11:59:55;4.93;;;2.13;;
8225;SDS011;4154;48.810;9.012;2023-01-31T12:02:30;4.40;;;1.80;;
8225;SDS011;4154;48.810;9.012;2023-01-31T12:05:07;4.93;;;2.00;;
8225;SDS011;4154;48.810;9.012;2023-01-31T12:07:46;4.57;;;1.93;;
8225;SDS011;4154;48.810;9.012;2023-01-31T12:10:29;3.17;;;1.70;;
8225;SDS011;4154;48.810;9.012;2023-01-31T12:13:13;6.30;;;2.03;;
8225;SDS011;4154;48.810;9.012;2023-01-31T12:15:57;5.10;;;1.97;;
8225;SDS011;4154;48.810;9.012;2023-01-31T12:19:33;5.53;;;2.10;;
8225;SDS011;4154;48.810;9.012;2023-01-31T12:28:02;4.23;;;1.90;;
8225;SDS011;4154;48.810;9.012;2023-01-31T12:31:00;4.37;;;1.90;;
8225;SDS011;4154;48.810;9.012;2023-01-31T12:40:28;4.10;;;1.90;;
8225;SDS011;4154;48.810;9.012;2023-01-31T12:43:16;4.10;;;1.93;;
8225;SDS011;4154;48.810;9.012;2023-01-31T12:49:53;3.67;;;1.73;;
8225;SDS011;4154;48.810;9.012;2023-01-31T12:57:48;5.53;;;2.10;;
8225;SDS011;4154;48.810;9.012;2023-01-31T13:00:54;4.40;;;2.00;;
8225;SDS011;4154;48.810;9.012;2023-01-31T13:06:23;4.37;;;1.93;;
8225;SDS011;4154;48.810;9.012;2023-01-31T13:09:01;3.90;;;1.87;;
8225;SDS011;4154;48.810;9.012;2023-01-31T13:11:44;3.90;;;1.90;;
8225;SDS011;4154;48.810;9.012;2023-01-31T13:14:20;4.20;;;2.13;;
8225;SDS011;4154;48.810;9.012;2023-01-31T13:16:53;3.53;;;1.90;;
8225;SDS011;4154;48.810;9.012;2023-01-31T13:22:07;5.43;;;2.17;;
8225;SDS011;4154;48.810;9.012;2023-01-31T13:24:46;4.50;;;2.17;;
8225;SDS011;4154;48.810;9.012;2023-01-31T13:27:26;4.50;;;2.10;;
8225;SDS011;4154;48.810;9.012;2023-01-31T13:29:59;2.77;;;1.97;;
8225;SDS011;4154;48.810;9.012;2023-01-31T13:32:33;3.67;;;2.10;;
8225;SDS011;4154;48.810;9.012;2023-01-31T13:37:37;5.57;;;2.10;;
8225;SDS011;4154;48.810;9.012;2023-01-31T13:40:18;3.77;;;2.20;;
8225;SDS011;4154;48.810;9.012;2023-01-31T13:42:48;3.57;;;2.00;;
8225;SDS011;4154;48.810;9.012;2023-01-31T13:48:24;5.10;;;2.00;;
8225;SDS011;4154;48.810;9.012;2023-01-31T13:51:18;3.37;;;2.03;;
8225;SDS011;4154;48.810;9.012;2023-01-31T13:54:02;4.20;;;2.00;;
8225;SDS011;4154;48.810;9.012;2023-01-31T13:56:45;2.70;;;2.00;;
8225;SDS011;4154;48.810;9.012;2023-01-31T13:59:20;3.97;;;1.90;;
8225;SDS011;4154;48.810;9.012;2023-01-31T14:01:52;3.83;;;2.30;;
8225;SDS011;4154;48.810;9.012;2023-01-31T14:04:27;4.03;;;2.20;;
8225;SDS011;4154;48.810;9.012;2023-01-31T14:09:30;4.03;;;1.90;;
8225;SDS011;4154;48.810;9.012;2023-01-31T14:14:54;4.10;;;2.30;;
8225;SDS011;4154;48.810;9.012;2023-01-31T14:22:24;3.57;;;2.23;;
8225;SDS011;4154;48.810;9.012;2023-01-31T14:30:08;5.27;;;2.37;;
8225;SDS011;4154;48.810;9.012;2023-01-31T14:41:27;5.30;;;2.30;;
8225;SDS011;4154;48.810;9.012;2023-01-31T14:47:06;3.60;;;2.07;;
8225;SDS011;4154;48.810;9.012;2023-01-31T14:50:19;3.60;;;2.40;;
8225;SDS011;4154;48.810;9.012;2023-01-31T14:55:57;3.37;;;2.40;;
8225;SDS011;4154;48.810;9.012;2023-01-31T14:58:41;3.07;;;2.37;;
8225;SDS011;4154;48.810;9.012;2023-01-31T15:01:11;2.93;;;2.10;;
8225;SDS011;4154;48.810;9.012;2023-01-31T15:06:27;3.70;;;2.30;;
8225;SDS011;4154;48.810;9.012;2023-01-31T15:11:46;3.67;;;2.20;;
8225;SDS011;4154;48.810;9.012;2023-01-31T15:14:27;4.20;;;2.20;;
8225;SDS011;4154;48.810;9.012;2023-01-31T15:17:17;3.23;;;2.20;;
8225;SDS011;4154;48.810;9.012;2023-01-31T15:19:56;3.93;;;2.20;;
8225;SDS011;4154;48.810;9.012;2023-01-31T15:22:36;3.53;;;2.70;;
8225;SDS011;4154;48.810;9.012;2023-01-31T15:25:07;4.67;;;2.30;;
8225;SDS011;4154;48.810;9.012;2023-01-31T15:27:58;3.50;;;2.10;;
8225;SDS011;4154;48.810;9.012;2023-01-31T15:30:26;3.57;;;2.37;;
8225;SDS011;4154;48.810;9.012;2023-01-31T15:32:58;2.90;;;2.30;;
8225;SDS011;4154;48.810;9.012;2023-01-31T15:41:37;3.00;;;1.97;;
8225;SDS011;4154;48.810;9.012;2023-01-31T15:44:11;4.00;;;2.10;;
8225;SDS011;4154;48.810;9.012;2023-01-31T15:46:43;3.30;;;2.33;;
8225;SDS011;4154;48.810;9.012;2023-01-31T15:49:22;2.57;;;2.37;;
8225;SDS011;4154;48.810;9.012;2023-01-31T15:54:38;4.13;;;2.87;;
8225;SDS011;4154;48.810;9.012;2023-01-31T15:57:18;4.80;;;2.67;;
8225;SDS011;4154;48.810;9.012;2023-01-31T15:59:48;4.57;;;2.87;;
8225;SDS011;4154;48.810;9.012;2023-01-31T16:02:19;4.47;;;2.70;;
8225;SDS011;4154;48.810;9.012;2023-01-31T16:04:53;2.40;;;2.20;;
8225;SDS011;4154;48.810;9.012;2023-01-31T16:07:20;3.97;;;2.10;;
8225;SDS011;4154;48.810;9.012;2023-01-31T16:09:52;3.10;;;1.93;;
8225;SDS011;4154;48.810;9.012;2023-01-31T16:12:25;3.60;;;2.03;;
8225;SDS011;4154;48.810;9.012;2023-01-31T16:14:54;3.23;;;2.20;;
8225;SDS011;4154;48.810;9.012;2023-01-31T16:17:28;4.20;;;3.03;;
8225;SDS011;4154;48.810;9.012;2023-01-31T16:19:54;3.13;;;2.10;;
8225;SDS011;4154;48.810;9.012;2023-01-31T16:22:25;2.33;;;2.00;;
8225;SDS011;4154;48.810;9.012;2023-01-31T16:24:56;2.67;;;1.93;;
8225;SDS011;4154;48.810;9.012;2023-01-31T16:27:26;2.73;;;2.10;;
8225;SDS011;4154;48.810;9.012;2023-01-31T16:29:59;4.07;;;2.17;;
8225;SDS011;4154;48.810;9.012;2023-01-31T16:32:30;4.33;;;2.50;;
8225;SDS011;4154;48.810;9.012;2023-01-31T16:37:37;3.00;;;2.20;;
8225;SDS011;4154;48.810;9.012;2023-01-31T16:42:54;4.13;;;2.57;;
8225;SDS011;4154;48.810;9.012;2023-01-31T16:45:52;5.70;;;4.20;;
8225;SDS011;4154;48.810;9.012;2023-01-31T16:48:34;4.03;;;2.73;;
8225;SDS011;4154;48.810;9.012;2023-01-31T16:54:10;3.77;;;2.63;;
8225;SDS011;4154;48.810;9.012;2023-01-31T17:04:43;3.33;;;2.30;;
8225;SDS011;4154;48.810;9.012;2023-01-31T17:07:13;3.17;;;2.33;;
8225;SDS011;4154;48.810;9.012;2023-01-31T17:09:45;2.57;;;2.37;;
8225;SDS011;4154;48.810;9.012;2023-01-31T17:12:20;3.90;;;2.40;;
8225;SDS011;4154;48.810;9.012;2023-01-31T17:14:52;4.13;;;2.70;;
8225;SDS011;4154;48.810;9.012;2023-01-31T17:17:29;3.13;;;2.53;;
8225;SDS011;4154;48.810;9.012;2023-01-31T17:20:01;4.37;;;2.33;;
8225;SDS011;4154;48.810;9.012;2023-01-31T17:22:27;2.67;;;2.33;;
8225;SDS011;4154;48.810;9.012;2023-01-31T17:24:53;3.23;;;2.70;;
8225;SDS011;4154;48.810;9.012;2023-01-31T17:27:20;3.83;;;2.57;;
8225;SDS011;4154;48.810;9.012;2023-01-31T17:29:46;2.50;;;2.30;;
8225;SDS011;4154;48.810;9.012;2023-01-31T17:32:14;5.23;;;2.40;;
8225;SDS011;4154;48.810;9.012;2023-01-31T17:34:44;2.90;;;2.40;;
8225;SDS011;4154;48.810;9.012;2023-01-31T17:37:12;3.37;;;2.40;;
8225;SDS011;4154;48.810;9.012;2023-01-31T17:39:38;3.07;;;2.53;;
8225;SDS011;4154;48.810;9.012;2023-01-31T17:42:04;5.37;;;2.90;;
8225;SDS011;4154;48.810;9.012;2023-01-31T17:44:38;2.67;;;2.30;;
8225;SDS011;4154;48.810;9.012;2023-01-31T17:47:03;3.03;;;2.60;;
8225;SDS011;4154;48.810;9.012;2023-01-31T17:49:29;3.80;;;2.40;;
8225;SDS011;4154;48.810;9.012;2023-01-31T17:51:54;3.73;;;2.60;;
8225;SDS011;4154;48.810;9.012;2023-01-31T17:54:21;4.30;;;2.50;;
8225;SDS011;4154;48.810;9.012;2023-01-31T17:56:47;2.80;;;2.43;;
8225;SDS011;4154;48.810;9.012;2023-01-31T17:59:13;4.23;;;3.60;;
8225;SDS011;4154;48.810;9.012;2023-01-31T18:01:39;8.17;;;7.17;;
8225;SDS011;4154;48.810;9.012;2023-01-31T18:04:05;3.40;;;3.10;;
8225;SDS011;4154;48.810;9.012;2023-01-31T18:06:31;4.37;;;2.87;;
8225;SDS011;4154;48.810;9.012;2023-01-31T18:08:59;4.50;;;3.27;;
8225;SDS011;4154;48.810;9.012;2023-01-31T18:11:27;3.47;;;2.80;;